createdAt,value
2018-08-17T00:02:13.352Z,22.00
2018-08-17T00:04:42.118Z,22.00
2018-08-17T00:07:10.839Z,22.00
2018-08-17T00:09:39.620Z,22.00
2018-08-17T00:12:08.068Z,21.90
2018-08-17T00:14:36.484Z,21.90
2018-08-17T00:17:04.966Z,21.90
2018-08-17T00:19:33.384Z,21.80
2018-08-17T00:22:01.893Z,21.80
2018-08-17T00:24:30.291Z,21.80
2018-08-17T00:26:58.763Z,21.90
2018-08-17T00:29:27.238Z,21.90
2018-08-17T00:31:55.690Z,21.90
2018-08-17T00:34:24.121Z,21.90
2018-08-17T00:36:52.568Z,21.90
2018-08-17T00:39:21.159Z,21.90
2018-08-17T00:41:49.575Z,21.80
2018-08-17T00:44:18.044Z,21.90
2018-08-17T00:46:46.527Z,21.90
2018-08-17T00:49:14.945Z,21.90
2018-08-17T00:51:43.350Z,22.00
2018-08-17T00:54:12.699Z,22.00
2018-08-17T00:56:41.123Z,22.00
2018-08-17T00:59:09.539Z,22.00
2018-08-17T01:01:38.001Z,21.90
2018-08-17T01:04:06.488Z,21.90
2018-08-17T01:06:35.050Z,21.90
2018-08-17T01:09:04.858Z,21.90
2018-08-17T01:11:33.311Z,21.90
2018-08-17T01:14:01.727Z,21.80
2018-08-17T01:16:30.199Z,21.90
2018-08-17T01:18:58.623Z,21.80
2018-08-17T01:21:27.048Z,21.80
2018-08-17T01:23:55.506Z,21.80
2018-08-17T01:26:23.920Z,21.80
2018-08-17T01:28:52.321Z,21.80
2018-08-17T01:31:20.878Z,21.80
2018-08-17T01:33:49.360Z,21.80
2018-08-17T01:36:17.754Z,21.70
2018-08-17T01:38:46.223Z,21.60
2018-08-17T01:41:14.632Z,21.50
2018-08-17T01:43:43.123Z,21.50
2018-08-17T01:46:11.715Z,21.50
2018-08-17T01:48:40.159Z,21.60
2018-08-17T01:51:08.587Z,21.70
2018-08-17T01:53:37.068Z,21.60
2018-08-17T01:56:05.700Z,21.60
2018-08-17T01:58:34.190Z,21.50
2018-08-17T02:01:02.604Z,21.40
2018-08-17T02:03:31.116Z,21.40
2018-08-17T02:05:59.542Z,21.20
2018-08-17T02:08:27.950Z,21.20
2018-08-17T02:10:56.496Z,21.20
2018-08-17T02:13:25.757Z,21.20
2018-08-17T02:15:54.356Z,21.10
2018-08-17T02:18:22.772Z,21.00
2018-08-17T02:20:51.260Z,21.00
2018-08-17T02:23:19.660Z,20.90
2018-08-17T02:25:48.116Z,20.90
2018-08-17T02:28:16.577Z,21.00
2018-08-17T02:30:44.992Z,21.10
2018-08-17T02:33:13.404Z,21.10
2018-08-17T02:35:41.812Z,21.20
2018-08-17T02:38:10.280Z,21.30
2018-08-17T02:40:38.703Z,21.30
2018-08-17T02:43:07.105Z,21.30
2018-08-17T02:45:35.557Z,21.30
2018-08-17T02:48:04.017Z,21.20
2018-08-17T02:50:32.419Z,21.30
2018-08-17T02:53:00.907Z,21.30
2018-08-17T02:55:29.328Z,21.40
2018-08-17T02:57:57.721Z,21.30
2018-08-17T03:00:26.149Z,21.40
2018-08-17T03:02:54.568Z,21.40
2018-08-17T03:05:23.269Z,21.30
2018-08-17T03:07:51.681Z,21.20
2018-08-17T03:10:20.092Z,21.10
2018-08-17T03:12:48.470Z,21.00
2018-08-17T03:15:17.052Z,20.80
2018-08-17T03:17:45.534Z,20.70
2018-08-17T03:20:14.005Z,20.50
2018-08-17T03:22:42.396Z,20.50
2018-08-17T03:25:10.875Z,20.40
2018-08-17T03:27:39.318Z,20.40
2018-08-17T03:30:07.734Z,20.50
2018-08-17T03:32:36.152Z,20.40
2018-08-17T03:35:05.355Z,20.30
2018-08-17T03:37:33.926Z,20.10
2018-08-17T03:40:02.300Z,20.00
2018-08-17T03:42:31.052Z,20.00
2018-08-17T03:44:59.496Z,19.90
2018-08-17T03:47:27.982Z,19.80
2018-08-17T03:49:56.374Z,19.70
2018-08-17T03:52:24.800Z,19.70
2018-08-17T03:54:53.211Z,19.70
2018-08-17T03:57:21.627Z,19.80
2018-08-17T03:59:50.052Z,19.90
2018-08-17T04:02:18.452Z,20.00
2018-08-17T04:04:46.885Z,20.10
2018-08-17T04:07:15.276Z,20.10
2018-08-17T04:09:43.708Z,20.20
2018-08-17T04:12:12.117Z,20.20
2018-08-17T04:14:40.500Z,20.20
2018-08-17T04:17:08.961Z,20.20
2018-08-17T04:19:37.345Z,20.20
2018-08-17T04:22:06.880Z,20.30
2018-08-17T04:24:35.292Z,20.30
2018-08-17T04:27:03.821Z,20.20
2018-08-17T04:29:32.220Z,20.20
2018-08-17T04:32:00.592Z,20.30
2018-08-17T04:34:29.084Z,20.30
2018-08-17T04:36:57.502Z,20.40
2018-08-17T04:39:25.938Z,20.40
2018-08-17T04:41:54.352Z,20.20
2018-08-17T04:44:22.798Z,20.10
2018-08-17T04:46:51.207Z,20.00
2018-08-17T04:49:19.754Z,20.00
2018-08-17T04:51:48.279Z,20.10
2018-08-17T04:54:16.739Z,20.00
2018-08-17T04:56:45.287Z,19.90
2018-08-17T04:59:13.758Z,19.90
2018-08-17T05:01:42.437Z,19.90
2018-08-17T05:04:10.888Z,20.00
2018-08-17T05:06:39.323Z,20.00
2018-08-17T05:09:07.841Z,20.00
2018-08-17T05:11:36.207Z,20.00
2018-08-17T05:14:04.611Z,20.00
2018-08-17T05:16:33.001Z,20.10
2018-08-17T05:19:01.399Z,20.20
2018-08-17T05:21:29.824Z,20.30
2018-08-17T05:23:58.207Z,20.40
2018-08-17T05:26:26.668Z,20.40
2018-08-17T05:28:55.086Z,20.40
2018-08-17T05:31:23.559Z,20.40
2018-08-17T05:33:52.036Z,20.50
2018-08-17T05:36:20.572Z,20.50
2018-08-17T05:38:48.999Z,20.80
2018-08-17T05:41:17.387Z,20.80
2018-08-17T05:43:45.820Z,20.90
2018-08-17T05:46:14.227Z,21.00
2018-08-17T05:48:42.693Z,20.80
2018-08-17T05:51:11.083Z,20.80
2018-08-17T05:53:40.162Z,20.80
2018-08-17T05:56:08.760Z,21.00
2018-08-17T05:58:37.176Z,21.00
2018-08-17T06:01:06.128Z,21.00
2018-08-17T06:03:34.590Z,20.90
2018-08-17T06:06:02.983Z,20.80
2018-08-17T06:08:31.536Z,20.80
2018-08-17T06:11:00.022Z,20.70
2018-08-17T06:13:28.344Z,20.70
2018-08-17T06:15:56.746Z,20.80
2018-08-17T06:18:25.170Z,20.70
2018-08-17T06:20:53.607Z,20.70
2018-08-17T06:23:22.004Z,20.60
2018-08-17T06:25:50.444Z,20.70
2018-08-17T06:28:18.862Z,20.50
2018-08-17T06:30:47.365Z,20.30
2018-08-17T06:33:15.797Z,20.10
2018-08-17T06:35:44.207Z,20.20
2018-08-17T06:38:12.770Z,20.30
2018-08-17T06:40:41.428Z,20.50
2018-08-17T06:43:09.879Z,20.60
2018-08-17T06:45:38.355Z,20.70
2018-08-17T06:48:07.063Z,20.40
2018-08-17T06:50:35.548Z,20.10
2018-08-17T06:53:03.962Z,19.90
2018-08-17T06:55:32.447Z,19.80
2018-08-17T06:58:00.899Z,19.70
2018-08-17T07:00:29.300Z,19.60
2018-08-17T07:02:57.878Z,19.50
2018-08-17T07:05:26.369Z,19.50
2018-08-17T07:07:54.891Z,19.50
2018-08-17T07:10:24.319Z,19.60
2018-08-17T07:12:52.786Z,19.70
2018-08-17T07:15:21.184Z,19.80
2018-08-17T07:17:49.616Z,20.00
2018-08-17T07:20:18.016Z,20.10
2018-08-17T07:22:46.418Z,20.20
2018-08-17T07:25:14.871Z,20.20
2018-08-17T07:27:43.347Z,20.10
2018-08-17T07:30:11.821Z,20.30
2018-08-17T07:32:40.448Z,20.40
2018-08-17T07:35:10.120Z,20.70
2018-08-17T07:37:38.800Z,20.90
2018-08-17T07:40:07.703Z,21.10
2018-08-17T07:42:36.188Z,21.20
2018-08-17T07:45:05.204Z,21.30
2018-08-17T07:47:33.720Z,21.40
2018-08-17T07:50:02.116Z,21.40
2018-08-17T07:52:30.520Z,21.40
2018-08-17T07:54:58.943Z,21.20
2018-08-17T07:57:27.389Z,21.10
2018-08-17T07:59:55.783Z,21.10
2018-08-17T08:02:24.198Z,21.00
2018-08-17T08:04:52.799Z,21.10
2018-08-17T08:07:21.299Z,21.20
2018-08-17T08:09:49.740Z,21.40
2018-08-17T08:12:18.719Z,21.60
2018-08-17T08:14:47.291Z,21.70
2018-08-17T08:17:15.712Z,21.90
2018-08-17T08:19:45.915Z,22.00
2018-08-17T08:22:14.339Z,22.10
2018-08-17T08:24:42.829Z,22.30
2018-08-17T08:27:11.231Z,22.70
2018-08-17T08:29:39.642Z,23.20
2018-08-17T08:32:08.058Z,23.40
2018-08-17T08:34:36.483Z,23.60
2018-08-17T08:37:05.594Z,23.70
2018-08-17T08:39:34.078Z,23.70
2018-08-17T08:42:02.492Z,23.70
2018-08-17T08:44:31.047Z,23.60
2018-08-17T08:46:59.462Z,23.70
2018-08-17T08:49:28.002Z,23.70
2018-08-17T08:51:56.424Z,23.70
2018-08-17T08:54:24.920Z,23.70
2018-08-17T08:56:53.360Z,23.60
2018-08-17T08:59:21.798Z,23.70
2018-08-17T09:01:50.483Z,23.70
2018-08-17T09:04:19.024Z,23.80
2018-08-17T09:06:47.444Z,23.90
2018-08-17T09:09:16.027Z,24.00
2018-08-17T09:11:44.524Z,24.00
2018-08-17T09:14:12.964Z,24.10
2018-08-17T09:16:41.510Z,24.10
2018-08-17T09:19:09.918Z,24.20
2018-08-17T09:21:38.856Z,24.20
2018-08-17T09:24:07.970Z,24.30
2018-08-17T09:26:36.388Z,24.10
2018-08-17T09:29:04.941Z,24.20
2018-08-17T09:31:33.368Z,24.40
2018-08-17T09:34:01.776Z,24.30
2018-08-17T09:36:30.202Z,24.90
2018-08-17T09:38:58.580Z,25.40
2018-08-17T09:41:27.059Z,25.50
2018-08-17T09:43:55.480Z,25.30
2018-08-17T09:46:24.114Z,25.20
2018-08-17T09:48:52.880Z,24.90
2018-08-17T09:51:21.351Z,24.80
2018-08-17T09:53:49.800Z,24.60
2018-08-17T09:56:18.294Z,24.50
2018-08-17T09:58:46.688Z,24.30
2018-08-17T10:01:20.683Z,24.30
2018-08-17T10:03:54.811Z,24.10
2018-08-17T10:06:29.119Z,24.10
2018-08-17T10:09:04.027Z,24.30
2018-08-17T10:11:32.484Z,24.70
2018-08-17T10:14:01.175Z,24.70
2018-08-17T10:16:29.840Z,24.80
2018-08-17T10:18:58.266Z,24.90
2018-08-17T10:21:27.017Z,24.90
2018-08-17T10:23:55.394Z,24.60
2018-08-17T10:26:23.839Z,24.20
2018-08-17T10:28:52.236Z,24.10
2018-08-17T10:31:20.724Z,23.90
2018-08-17T10:33:49.504Z,23.70
2018-08-17T10:36:17.923Z,23.60
2018-08-17T10:38:46.375Z,23.50
2018-08-17T10:41:14.961Z,23.40
2018-08-17T10:43:43.520Z,23.40
2018-08-17T10:46:11.964Z,23.10
2018-08-17T10:48:40.437Z,22.80
2018-08-17T10:51:08.920Z,22.90
2018-08-17T10:53:41.624Z,23.10
2018-08-17T10:56:10.116Z,22.90
2018-08-17T10:58:38.728Z,22.70
2018-08-17T11:01:07.132Z,22.70
2018-08-17T11:03:35.623Z,22.60
2018-08-17T11:06:04.361Z,22.70
2018-08-17T11:08:33.017Z,22.70
2018-08-17T11:11:01.480Z,22.70
2018-08-17T11:13:29.877Z,22.80
2018-08-17T11:15:58.265Z,22.90
2018-08-17T11:18:26.664Z,23.10
2018-08-17T11:20:55.736Z,23.30
2018-08-17T11:23:24.413Z,23.40
2018-08-17T11:25:52.825Z,23.30
2018-08-17T11:28:21.232Z,23.30
2018-08-17T11:30:49.636Z,23.50
2018-08-17T11:33:23.244Z,23.60
2018-08-17T11:35:52.145Z,24.00
2018-08-17T11:38:20.508Z,24.40
2018-08-17T11:40:48.936Z,24.30
2018-08-17T11:43:17.860Z,24.10
2018-08-17T11:45:46.599Z,24.10
2018-08-17T11:48:22.529Z,24.20
2018-08-17T11:50:51.023Z,24.10
2018-08-17T11:53:19.667Z,24.30
2018-08-17T11:55:48.115Z,24.50
2018-08-17T11:58:16.537Z,24.00
2018-08-17T12:00:45.004Z,24.40
2018-08-17T12:03:13.467Z,24.50
2018-08-17T12:05:42.103Z,24.30
2018-08-17T12:08:10.537Z,24.40
2018-08-17T12:10:38.931Z,24.70
2018-08-17T12:13:12.566Z,25.10
2018-08-17T12:15:46.315Z,25.50
2018-08-17T12:18:14.707Z,25.60
2018-08-17T12:20:43.145Z,25.80
2018-08-17T12:23:11.539Z,25.70
2018-08-17T12:25:49.263Z,25.60
2018-08-17T12:28:17.675Z,25.40
2018-08-17T12:30:46.070Z,25.30
2018-08-17T12:33:14.487Z,25.30
2018-08-17T12:35:43.031Z,25.60
2018-08-17T12:38:16.425Z,25.80
2018-08-17T12:40:46.983Z,25.90
2018-08-17T12:43:17.641Z,25.70
2018-08-17T12:45:46.490Z,25.40
2018-08-17T12:48:15.955Z,25.40
2018-08-17T12:50:45.050Z,25.20
2018-08-17T12:53:13.867Z,25.00
2018-08-17T12:55:42.623Z,24.90
2018-08-17T12:58:11.436Z,24.60
2018-08-17T13:00:40.144Z,24.40
2018-08-17T13:03:08.920Z,24.20
2018-08-17T13:05:37.447Z,24.00
2018-08-17T13:08:06.556Z,23.70
2018-08-17T13:10:35.903Z,23.80
2018-08-17T13:13:11.211Z,23.70
2018-08-17T13:15:45.081Z,23.60
2018-08-17T13:18:18.631Z,23.60
2018-08-17T13:20:47.160Z,23.70
2018-08-17T13:23:15.589Z,23.50
2018-08-17T13:25:44.006Z,23.20
2018-08-17T13:28:12.453Z,23.10
2018-08-17T13:30:40.939Z,23.10
2018-08-17T13:33:09.546Z,23.10
2018-08-17T13:35:37.964Z,23.20
2018-08-17T13:38:06.804Z,23.40
2018-08-17T13:40:35.258Z,23.50
2018-08-17T13:43:03.919Z,23.50
2018-08-17T13:45:32.371Z,23.60
2018-08-17T13:48:00.872Z,23.70
2018-08-17T13:50:29.279Z,23.80
2018-08-17T13:52:57.715Z,23.90
2018-08-17T13:55:26.287Z,24.10
2018-08-17T13:57:54.587Z,24.30
2018-08-17T14:00:23.018Z,24.50
2018-08-17T14:02:51.623Z,24.40
2018-08-17T14:05:20.985Z,24.40
2018-08-17T14:07:49.457Z,24.60
2018-08-17T14:10:17.846Z,24.50
2018-08-17T14:12:46.416Z,24.20
2018-08-17T14:15:14.963Z,24.10
2018-08-17T14:17:43.467Z,24.30
2018-08-17T14:20:14.985Z,24.30
2018-08-17T14:22:43.510Z,24.50
2018-08-17T14:25:12.369Z,24.60
2018-08-17T14:27:40.949Z,24.70
2018-08-17T14:30:15.085Z,24.90
2018-08-17T14:32:43.867Z,24.80
2018-08-17T14:35:12.630Z,24.60
2018-08-17T14:37:40.955Z,24.50
2018-08-17T14:40:10.254Z,24.60
2018-08-17T14:42:39.007Z,24.30
2018-08-17T14:45:08.454Z,24.30
2018-08-17T14:47:37.436Z,24.10
2018-08-17T14:50:08.320Z,24.00
2018-08-17T14:52:36.919Z,24.20
2018-08-17T14:55:05.715Z,24.40
2018-08-17T14:57:34.250Z,24.70
2018-08-17T15:00:02.667Z,25.00
2018-08-17T15:02:31.084Z,25.10
2018-08-17T15:04:59.573Z,25.10
2018-08-17T15:07:28.019Z,25.10
2018-08-17T15:09:56.429Z,25.10
2018-08-17T15:12:24.828Z,25.00
2018-08-17T15:14:53.322Z,24.90
2018-08-17T15:17:22.181Z,24.90
2018-08-17T15:19:50.636Z,25.00
2018-08-17T15:22:19.084Z,25.00
2018-08-17T15:24:47.684Z,24.90
2018-08-17T15:27:16.612Z,24.90
2018-08-17T15:29:45.045Z,24.80
2018-08-17T15:32:13.536Z,24.90
2018-08-17T15:34:41.974Z,24.70
2018-08-17T15:37:10.409Z,24.50
2018-08-17T15:39:38.849Z,24.10
2018-08-17T15:42:07.633Z,23.80
2018-08-17T15:44:36.059Z,23.40
2018-08-17T15:47:04.740Z,23.30
2018-08-17T15:49:33.643Z,23.30
2018-08-17T15:52:03.281Z,23.40
2018-08-17T15:54:31.723Z,23.60
2018-08-17T15:57:00.383Z,23.80
2018-08-17T15:59:28.927Z,24.00
2018-08-17T16:01:57.360Z,23.90
2018-08-17T16:04:25.804Z,23.90
2018-08-17T16:06:54.300Z,23.90
2018-08-17T16:09:23.515Z,23.80
2018-08-17T16:11:51.943Z,23.80
2018-08-17T16:14:20.389Z,23.80
2018-08-17T16:16:48.811Z,23.90
2018-08-17T16:19:17.202Z,24.00
2018-08-17T16:21:45.671Z,24.00
2018-08-17T16:24:14.071Z,24.00
2018-08-17T16:26:42.568Z,24.00
2018-08-17T16:29:11.059Z,23.90
2018-08-17T16:31:41.672Z,23.80
2018-08-17T16:34:10.669Z,23.90
2018-08-17T16:36:41.330Z,23.80
2018-08-17T16:39:12.866Z,23.70
2018-08-17T16:41:41.388Z,23.80
2018-08-17T16:44:10.403Z,23.90
2018-08-17T16:46:40.080Z,23.80
2018-08-17T16:49:08.923Z,23.70
2018-08-17T16:51:37.689Z,23.50
2018-08-17T16:54:06.205Z,23.30
2018-08-17T16:56:34.847Z,23.30
2018-08-17T16:59:03.406Z,23.20
2018-08-17T17:01:32.243Z,23.10
2018-08-17T17:04:00.842Z,23.00
2018-08-17T17:06:29.311Z,23.00
2018-08-17T17:09:00.847Z,23.00
2018-08-17T17:11:29.305Z,23.00
2018-08-17T17:13:57.704Z,23.00
2018-08-17T17:16:35.603Z,23.10
2018-08-17T17:19:04.079Z,23.30
2018-08-17T17:21:32.903Z,23.30
2018-08-17T17:24:01.339Z,23.30
2018-08-17T17:26:29.794Z,23.30
2018-08-17T17:28:58.305Z,23.30
2018-08-17T17:31:26.718Z,23.10
2018-08-17T17:33:55.168Z,23.10
2018-08-17T17:36:23.699Z,23.10
2018-08-17T17:38:52.083Z,23.10
2018-08-17T17:41:20.763Z,23.10
2018-08-17T17:43:49.171Z,23.20
2018-08-17T17:46:17.927Z,23.20
2018-08-17T17:48:46.363Z,23.00
2018-08-17T17:51:14.775Z,22.80
2018-08-17T17:53:43.663Z,22.80
2018-08-17T17:56:12.213Z,22.70
2018-08-17T17:58:40.776Z,22.60
2018-08-17T18:01:10.226Z,22.50
2018-08-17T18:03:42.806Z,22.50
2018-08-17T18:06:11.210Z,22.40
2018-08-17T18:08:39.640Z,22.40
2018-08-17T18:11:08.107Z,22.40
2018-08-17T18:13:36.477Z,22.30
2018-08-17T18:16:04.949Z,22.30
2018-08-17T18:18:34.295Z,22.20
2018-08-17T18:21:02.795Z,22.20
2018-08-17T18:23:31.239Z,22.20
2018-08-17T18:25:59.661Z,22.30
2018-08-17T18:28:28.361Z,22.20
2018-08-17T18:30:56.800Z,22.30
2018-08-17T18:33:25.184Z,22.20
2018-08-17T18:35:53.756Z,22.20
2018-08-17T18:38:22.221Z,22.10
2018-08-17T18:40:50.667Z,22.00
2018-08-17T18:43:19.050Z,22.00
2018-08-17T18:45:47.705Z,22.00
2018-08-17T18:48:16.112Z,22.00
2018-08-17T18:50:44.540Z,21.90
2018-08-17T18:53:12.971Z,21.90
2018-08-17T18:55:41.406Z,21.90
2018-08-17T18:58:09.878Z,21.80
2018-08-17T19:00:38.418Z,21.80
2018-08-17T19:03:07.104Z,21.70
2018-08-17T19:05:35.643Z,21.70
2018-08-17T19:08:04.110Z,21.70
2018-08-17T19:10:32.563Z,21.60
2018-08-17T19:13:00.952Z,21.60
2018-08-17T19:15:30.728Z,21.60
2018-08-17T19:17:59.144Z,21.50
2018-08-17T19:20:27.601Z,21.40
2018-08-17T19:22:55.988Z,21.30
2018-08-17T19:25:24.920Z,21.20
2018-08-17T19:27:53.638Z,21.10
2018-08-17T19:30:27.489Z,21.10
2018-08-17T19:32:57.723Z,21.20
2018-08-17T19:35:26.759Z,21.20
2018-08-17T19:37:55.240Z,21.20
2018-08-17T19:40:24.212Z,21.20
2018-08-17T19:42:52.654Z,21.20
2018-08-17T19:45:21.667Z,21.20
2018-08-17T19:47:50.549Z,21.20
2018-08-17T19:50:19.111Z,21.20
2018-08-17T19:52:47.627Z,21.20
2018-08-17T19:55:17.313Z,21.20
2018-08-17T19:57:45.807Z,21.20
2018-08-17T20:00:14.715Z,21.20
2018-08-17T20:02:43.115Z,21.20
2018-08-17T20:05:11.620Z,21.20
2018-08-17T20:07:40.240Z,21.10
2018-08-17T20:10:10.121Z,21.10
2018-08-17T20:12:39.888Z,21.00
2018-08-17T20:15:08.913Z,21.00
2018-08-17T20:17:37.947Z,21.00
2018-08-17T20:20:09.468Z,21.00
2018-08-17T20:22:37.905Z,21.00
2018-08-17T20:25:11.779Z,21.00
2018-08-17T20:27:40.349Z,20.90
2018-08-17T20:30:14.193Z,20.90
2018-08-17T20:32:42.742Z,21.00
2018-08-17T20:35:11.400Z,20.90
2018-08-17T20:37:44.112Z,20.90
2018-08-17T20:40:12.657Z,20.80
2018-08-17T20:42:41.128Z,20.80
2018-08-17T20:45:09.944Z,20.80
2018-08-17T20:47:39.571Z,20.80
2018-08-17T20:50:18.329Z,20.80
2018-08-17T20:53:02.079Z,20.80
2018-08-17T20:55:30.532Z,20.90
2018-08-17T20:58:00.207Z,20.90
2018-08-17T21:00:29.906Z,20.90
2018-08-17T21:02:59.321Z,20.80
2018-08-17T21:05:28.265Z,20.80
2018-08-17T21:07:56.775Z,20.80
2018-08-17T21:10:25.537Z,20.70
2018-08-17T21:12:54.460Z,20.70
2018-08-17T21:15:23.676Z,20.60
2018-08-17T21:17:52.201Z,20.50
2018-08-17T21:20:20.638Z,20.40
2018-08-17T21:22:49.172Z,20.40
2018-08-17T21:25:17.680Z,20.40
2018-08-17T21:27:46.109Z,20.40
2018-08-17T21:30:15.395Z,20.30
2018-08-17T21:32:43.823Z,20.20
2018-08-17T21:35:12.591Z,20.20
2018-08-17T21:37:41.281Z,20.20
2018-08-17T21:40:16.293Z,20.10
2018-08-17T21:42:44.731Z,20.10
2018-08-17T21:45:13.223Z,20.10
2018-08-17T21:47:41.675Z,20.10
2018-08-17T21:50:13.445Z,19.90
2018-08-17T21:52:42.611Z,19.80
2018-08-17T21:55:11.130Z,19.70
2018-08-17T21:57:39.551Z,19.50
2018-08-17T22:00:12.567Z,19.50
2018-08-17T22:02:41.043Z,19.40
2018-08-17T22:05:13.377Z,19.10
2018-08-17T22:07:41.960Z,19.00
2018-08-17T22:10:10.429Z,18.90
2018-08-17T22:12:38.900Z,18.80
2018-08-17T22:15:07.520Z,18.80
2018-08-17T22:17:38.893Z,18.60
2018-08-17T22:20:08.835Z,18.50
2018-08-17T22:22:37.351Z,18.50
2018-08-17T22:25:11.450Z,18.50
2018-08-17T22:27:40.287Z,18.50
2018-08-17T22:30:21.621Z,18.50
2018-08-17T22:32:50.372Z,18.50
2018-08-17T22:35:19.119Z,18.50
2018-08-17T22:37:47.514Z,18.50
2018-08-17T22:40:15.989Z,18.50
2018-08-17T22:42:47.203Z,18.40
2018-08-17T22:45:16.463Z,18.50
2018-08-17T22:47:45.231Z,18.50
2018-08-17T22:50:13.650Z,18.40
2018-08-17T22:52:42.106Z,18.40
2018-08-17T22:55:10.498Z,18.50
2018-08-17T22:57:38.974Z,18.40
2018-08-17T23:00:16.956Z,18.40
2018-08-17T23:02:46.345Z,18.40
2018-08-17T23:05:17.119Z,18.40
2018-08-17T23:07:45.672Z,18.30
2018-08-17T23:10:17.312Z,18.30
2018-08-17T23:12:46.975Z,18.20
2018-08-17T23:15:15.628Z,18.20
2018-08-17T23:17:48.908Z,18.10
2018-08-17T23:20:21.599Z,18.10
2018-08-17T23:22:51.219Z,18.10
2018-08-17T23:25:19.756Z,18.10
2018-08-17T23:27:48.884Z,18.00
2018-08-17T23:30:17.302Z,18.00
2018-08-17T23:32:46.208Z,17.90
2018-08-17T23:35:14.671Z,17.70
2018-08-17T23:37:43.296Z,17.60
2018-08-17T23:40:11.771Z,17.50
2018-08-17T23:42:40.324Z,17.60
2018-08-17T23:45:10.816Z,17.60
2018-08-17T23:47:39.382Z,17.50
2018-08-17T23:50:09.299Z,17.50
2018-08-17T23:52:37.884Z,17.40
2018-08-17T23:55:07.288Z,17.30
2018-08-17T23:57:35.962Z,17.20
